sensor_id;sensor_type;location;lat;lon;timestamp;P1;durP1;ratioP1;P2;durP2;ratioP2
33696;SDS011;20031;43.416;23.232;2023-08-31T00:02:12;4.82;;;1.90;;
33696;SDS011;20031;43.416;23.232;2023-08-31T00:04:37;6.35;;;2.22;;
33696;SDS011;20031;43.416;23.232;2023-08-31T00:07:03;7.00;;;1.90;;
33696;SDS011;20031;43.416;23.232;2023-08-31T00:09:28;7.20;;;2.10;;
33696;SDS011;20031;43.416;23.232;2023-08-31T00:11:57;6.93;;;1.88;;
33696;SDS011;20031;43.416;23.232;2023-08-31T00:14:23;11.55;;;2.35;;
33696;SDS011;20031;43.416;23.232;2023-08-31T00:16:49;8.18;;;1.70;;
33696;SDS011;20031;43.416;23.232;2023-08-31T00:19:15;5.30;;;1.83;;
33696;SDS011;20031;43.416;23.232;2023-08-31T00:21:41;4.80;;;1.88;;
33696;SDS011;20031;43.416;23.232;2023-08-31T00:24:07;11.32;;;2.00;;
33696;SDS011;20031;43.416;23.232;2023-08-31T00:26:34;7.18;;;1.80;;
33696;SDS011;20031;43.416;23.232;2023-08-31T00:29:05;8.57;;;1.95;;
33696;SDS011;20031;43.416;23.232;2023-08-31T00:31:31;8.55;;;1.73;;
33696;SDS011;20031;43.416;23.232;2023-08-31T00:33:56;6.82;;;2.10;;
33696;SDS011;20031;43.416;23.232;2023-08-31T00:36:21;4.82;;;2.08;;
33696;SDS011;20031;43.416;23.232;2023-08-31T00:38:48;9.85;;;2.08;;
33696;SDS011;20031;43.416;23.232;2023-08-31T00:41:14;7.07;;;1.85;;
33696;SDS011;20031;43.416;23.232;2023-08-31T00:43:40;7.38;;;2.00;;
33696;SDS011;20031;43.416;23.232;2023-08-31T00:46:05;7.43;;;2.15;;
33696;SDS011;20031;43.416;23.232;2023-08-31T00:48:31;7.82;;;1.95;;
33696;SDS011;20031;43.416;23.232;2023-08-31T00:50:57;10.40;;;1.88;;
33696;SDS011;20031;43.416;23.232;2023-08-31T00:53:22;5.40;;;1.77;;
33696;SDS011;20031;43.416;23.232;2023-08-31T00:55:48;11.07;;;2.03;;
33696;SDS011;20031;43.416;23.232;2023-08-31T00:58:14;6.03;;;1.70;;
33696;SDS011;20031;43.416;23.232;2023-08-31T01:00:43;5.70;;;1.95;;
33696;SDS011;20031;43.416;23.232;2023-08-31T01:06:02;6.40;;;1.80;;
33696;SDS011;20031;43.416;23.232;2023-08-31T01:14:25;12.03;;;2.40;;
33696;SDS011;20031;43.416;23.232;2023-08-31T01:16:57;11.90;;;2.22;;
33696;SDS011;20031;43.416;23.232;2023-08-31T01:19:43;7.53;;;1.80;;
33696;SDS011;20031;43.416;23.232;2023-08-31T01:22:46;14.93;;;2.10;;
33696;SDS011;20031;43.416;23.232;2023-08-31T01:25:08;7.80;;;2.00;;
33696;SDS011;20031;43.416;23.232;2023-08-31T01:27:34;17.05;;;2.30;;
33696;SDS011;20031;43.416;23.232;2023-08-31T01:30:02;16.30;;;2.28;;
33696;SDS011;20031;43.416;23.232;2023-08-31T01:32:31;11.93;;;2.00;;
33696;SDS011;20031;43.416;23.232;2023-08-31T01:34:57;14.32;;;2.05;;
33696;SDS011;20031;43.416;23.232;2023-08-31T01:40:23;10.85;;;1.95;;
33696;SDS011;20031;43.416;23.232;2023-08-31T01:42:51;9.38;;;1.95;;
33696;SDS011;20031;43.416;23.232;2023-08-31T01:45:21;6.90;;;2.05;;
33696;SDS011;20031;43.416;23.232;2023-08-31T01:47:48;13.18;;;2.00;;
33696;SDS011;20031;43.416;23.232;2023-08-31T01:50:14;10.45;;;2.15;;
33696;SDS011;20031;43.416;23.232;2023-08-31T01:52:39;4.10;;;1.80;;
33696;SDS011;20031;43.416;23.232;2023-08-31T01:55:05;10.10;;;2.00;;
33696;SDS011;20031;43.416;23.232;2023-08-31T01:57:31;8.57;;;1.80;;
33696;SDS011;20031;43.416;23.232;2023-08-31T01:59:57;16.55;;;2.17;;
33696;SDS011;20031;43.416;23.232;2023-08-31T02:02:23;9.70;;;2.00;;
33696;SDS011;20031;43.416;23.232;2023-08-31T02:04:48;15.38;;;1.88;;
33696;SDS011;20031;43.416;23.232;2023-08-31T02:07:15;9.60;;;2.17;;
33696;SDS011;20031;43.416;23.232;2023-08-31T02:09:41;13.27;;;2.30;;
33696;SDS011;20031;43.416;23.232;2023-08-31T02:12:06;9.93;;;2.35;;
33696;SDS011;20031;43.416;23.232;2023-08-31T02:14:34;15.68;;;2.35;;
33696;SDS011;20031;43.416;23.232;2023-08-31T02:17:00;11.13;;;2.10;;
33696;SDS011;20031;43.416;23.232;2023-08-31T02:19:25;14.50;;;2.05;;
33696;SDS011;20031;43.416;23.232;2023-08-31T02:21:51;18.05;;;2.40;;
33696;SDS011;20031;43.416;23.232;2023-08-31T02:24:16;14.13;;;2.40;;
33696;SDS011;20031;43.416;23.232;2023-08-31T02:26:41;15.07;;;2.40;;
33696;SDS011;20031;43.416;23.232;2023-08-31T02:29:07;21.65;;;2.70;;
33696;SDS011;20031;43.416;23.232;2023-08-31T02:31:32;27.13;;;2.65;;
33696;SDS011;20031;43.416;23.232;2023-08-31T02:33:58;16.83;;;3.70;;
33696;SDS011;20031;43.416;23.232;2023-08-31T02:36:23;18.30;;;3.63;;
33696;SDS011;20031;43.416;23.232;2023-08-31T02:38:49;24.52;;;3.40;;
33696;SDS011;20031;43.416;23.232;2023-08-31T02:41:15;19.33;;;3.08;;
33696;SDS011;20031;43.416;23.232;2023-08-31T02:43:42;13.20;;;2.88;;
33696;SDS011;20031;43.416;23.232;2023-08-31T02:46:07;30.67;;;3.28;;
33696;SDS011;20031;43.416;23.232;2023-08-31T02:48:33;18.55;;;2.45;;
33696;SDS011;20031;43.416;23.232;2023-08-31T02:50:59;19.73;;;2.78;;
33696;SDS011;20031;43.416;23.232;2023-08-31T02:53:29;23.17;;;3.17;;
33696;SDS011;20031;43.416;23.232;2023-08-31T02:55:55;21.13;;;2.67;;
33696;SDS011;20031;43.416;23.232;2023-08-31T02:58:21;12.25;;;2.00;;
33696;SDS011;20031;43.416;23.232;2023-08-31T03:00:47;14.25;;;2.17;;
33696;SDS011;20031;43.416;23.232;2023-08-31T03:03:16;6.85;;;1.70;;
33696;SDS011;20031;43.416;23.232;2023-08-31T03:05:43;10.73;;;2.05;;
33696;SDS011;20031;43.416;23.232;2023-08-31T03:08:09;8.73;;;1.98;;
33696;SDS011;20031;43.416;23.232;2023-08-31T03:10:35;6.63;;;1.95;;
33696;SDS011;20031;43.416;23.232;2023-08-31T03:13:01;7.57;;;1.85;;
33696;SDS011;20031;43.416;23.232;2023-08-31T03:15:27;10.70;;;1.98;;
33696;SDS011;20031;43.416;23.232;2023-08-31T03:17:52;10.80;;;2.38;;
33696;SDS011;20031;43.416;23.232;2023-08-31T03:20:18;12.25;;;3.05;;
33696;SDS011;20031;43.416;23.232;2023-08-31T03:22:43;10.52;;;2.65;;
33696;SDS011;20031;43.416;23.232;2023-08-31T03:25:09;15.85;;;3.08;;
33696;SDS011;20031;43.416;23.232;2023-08-31T03:27:34;20.33;;;3.67;;
33696;SDS011;20031;43.416;23.232;2023-08-31T03:30:00;15.23;;;3.30;;
33696;SDS011;20031;43.416;23.232;2023-08-31T03:32:26;29.83;;;4.90;;
33696;SDS011;20031;43.416;23.232;2023-08-31T03:34:52;27.17;;;4.68;;
33696;SDS011;20031;43.416;23.232;2023-08-31T03:37:17;42.20;;;7.10;;
33696;SDS011;20031;43.416;23.232;2023-08-31T03:39:46;38.80;;;7.00;;
33696;SDS011;20031;43.416;23.232;2023-08-31T03:42:12;19.20;;;3.15;;
33696;SDS011;20031;43.416;23.232;2023-08-31T03:44:38;25.60;;;3.13;;
33696;SDS011;20031;43.416;23.232;2023-08-31T03:47:03;30.65;;;2.75;;
33696;SDS011;20031;43.416;23.232;2023-08-31T03:49:29;22.63;;;2.85;;
33696;SDS011;20031;43.416;23.232;2023-08-31T03:51:56;25.10;;;2.80;;
33696;SDS011;20031;43.416;23.232;2023-08-31T03:54:22;19.45;;;2.63;;
33696;SDS011;20031;43.416;23.232;2023-08-31T03:56:47;31.02;;;3.85;;
33696;SDS011;20031;43.416;23.232;2023-08-31T03:59:13;25.45;;;4.00;;
33696;SDS011;20031;43.416;23.232;2023-08-31T04:01:38;46.30;;;23.83;;
33696;SDS011;20031;43.416;23.232;2023-08-31T04:04:04;42.03;;;17.05;;
33696;SDS011;20031;43.416;23.232;2023-08-31T04:06:30;53.00;;;14.13;;
33696;SDS011;20031;43.416;23.232;2023-08-31T04:08:55;24.13;;;10.27;;
33696;SDS011;20031;43.416;23.232;2023-08-31T04:11:21;28.40;;;8.25;;
33696;SDS011;20031;43.416;23.232;2023-08-31T04:13:47;30.15;;;8.35;;
33696;SDS011;20031;43.416;23.232;2023-08-31T04:16:12;30.55;;;5.97;;
33696;SDS011;20031;43.416;23.232;2023-08-31T04:18:38;22.17;;;6.45;;
33696;SDS011;20031;43.416;23.232;2023-08-31T04:21:03;20.58;;;6.68;;
33696;SDS011;20031;43.416;23.232;2023-08-31T04:23:29;26.00;;;7.53;;
33696;SDS011;20031;43.416;23.232;2023-08-31T04:25:54;33.70;;;6.80;;
33696;SDS011;20031;43.416;23.232;2023-08-31T04:28:21;27.05;;;5.15;;
33696;SDS011;20031;43.416;23.232;2023-08-31T04:30:46;20.25;;;3.70;;
33696;SDS011;20031;43.416;23.232;2023-08-31T04:33:13;24.98;;;5.03;;
33696;SDS011;20031;43.416;23.232;2023-08-31T04:35:38;56.25;;;21.38;;
33696;SDS011;20031;43.416;23.232;2023-08-31T04:38:03;44.63;;;19.23;;
33696;SDS011;20031;43.416;23.232;2023-08-31T04:40:29;40.40;;;15.45;;
33696;SDS011;20031;43.416;23.232;2023-08-31T04:42:54;43.45;;;17.20;;
33696;SDS011;20031;43.416;23.232;2023-08-31T04:45:20;31.85;;;11.80;;
33696;SDS011;20031;43.416;23.232;2023-08-31T04:47:45;26.95;;;7.55;;
33696;SDS011;20031;43.416;23.232;2023-08-31T04:50:11;20.95;;;4.30;;
33696;SDS011;20031;43.416;23.232;2023-08-31T04:52:36;14.75;;;3.42;;
33696;SDS011;20031;43.416;23.232;2023-08-31T04:55:02;23.55;;;3.38;;
33696;SDS011;20031;43.416;23.232;2023-08-31T04:57:28;19.52;;;3.28;;
33696;SDS011;20031;43.416;23.232;2023-08-31T04:59:54;17.95;;;3.15;;
33696;SDS011;20031;43.416;23.232;2023-08-31T05:02:20;19.38;;;2.58;;
33696;SDS011;20031;43.416;23.232;2023-08-31T05:04:45;14.25;;;2.80;;
33696;SDS011;20031;43.416;23.232;2023-08-31T05:07:11;16.00;;;2.55;;
33696;SDS011;20031;43.416;23.232;2023-08-31T05:09:36;12.73;;;2.58;;
33696;SDS011;20031;43.416;23.232;2023-08-31T05:12:02;16.55;;;2.70;;
33696;SDS011;20031;43.416;23.232;2023-08-31T05:14:28;18.85;;;2.58;;
33696;SDS011;20031;43.416;23.232;2023-08-31T05:16:54;18.35;;;2.80;;
33696;SDS011;20031;43.416;23.232;2023-08-31T05:19:19;16.48;;;2.75;;
33696;SDS011;20031;43.416;23.232;2023-08-31T05:21:45;15.05;;;2.55;;
33696;SDS011;20031;43.416;23.232;2023-08-31T05:24:11;11.05;;;2.00;;
33696;SDS011;20031;43.416;23.232;2023-08-31T05:26:36;12.63;;;2.28;;
33696;SDS011;20031;43.416;23.232;2023-08-31T05:29:02;10.10;;;2.25;;
33696;SDS011;20031;43.416;23.232;2023-08-31T05:31:29;17.25;;;2.50;;
33696;SDS011;20031;43.416;23.232;2023-08-31T05:33:54;12.45;;;2.42;;
33696;SDS011;20031;43.416;23.232;2023-08-31T05:36:20;12.98;;;2.47;;
33696;SDS011;20031;43.416;23.232;2023-08-31T05:38:45;12.95;;;2.28;;
33696;SDS011;20031;43.416;23.232;2023-08-31T05:41:11;30.08;;;3.05;;
33696;SDS011;20031;43.416;23.232;2023-08-31T05:43:37;12.65;;;2.20;;
33696;SDS011;20031;43.416;23.232;2023-08-31T05:46:05;18.63;;;2.28;;
33696;SDS011;20031;43.416;23.232;2023-08-31T05:48:32;10.98;;;2.42;;
33696;SDS011;20031;43.416;23.232;2023-08-31T05:50:59;7.70;;;2.10;;
33696;SDS011;20031;43.416;23.232;2023-08-31T05:53:24;8.40;;;1.80;;
33696;SDS011;20031;43.416;23.232;2023-08-31T05:55:50;17.08;;;2.40;;
33696;SDS011;20031;43.416;23.232;2023-08-31T05:58:15;11.35;;;1.90;;
33696;SDS011;20031;43.416;23.232;2023-08-31T06:00:41;12.82;;;1.95;;
33696;SDS011;20031;43.416;23.232;2023-08-31T06:03:06;6.38;;;1.70;;
33696;SDS011;20031;43.416;23.232;2023-08-31T06:05:32;8.98;;;2.20;;
33696;SDS011;20031;43.416;23.232;2023-08-31T06:07:59;8.63;;;2.00;;
33696;SDS011;20031;43.416;23.232;2023-08-31T06:10:24;10.07;;;2.30;;
33696;SDS011;20031;43.416;23.232;2023-08-31T06:12:50;14.82;;;2.35;;
33696;SDS011;20031;43.416;23.232;2023-08-31T06:15:16;19.52;;;2.75;;
33696;SDS011;20031;43.416;23.232;2023-08-31T06:17:42;9.45;;;2.58;;
33696;SDS011;20031;43.416;23.232;2023-08-31T06:20:08;17.15;;;2.25;;
33696;SDS011;20031;43.416;23.232;2023-08-31T06:22:35;12.10;;;2.33;;
33696;SDS011;20031;43.416;23.232;2023-08-31T06:25:00;14.55;;;2.22;;
33696;SDS011;20031;43.416;23.232;2023-08-31T06:27:26;16.48;;;2.30;;
33696;SDS011;20031;43.416;23.232;2023-08-31T06:29:52;13.07;;;2.53;;
33696;SDS011;20031;43.416;23.232;2023-08-31T06:32:17;5.47;;;1.85;;
33696;SDS011;20031;43.416;23.232;2023-08-31T06:34:43;10.10;;;1.70;;
33696;SDS011;20031;43.416;23.232;2023-08-31T06:37:09;15.02;;;2.42;;
33696;SDS011;20031;43.416;23.232;2023-08-31T06:39:35;8.52;;;2.10;;
33696;SDS011;20031;43.416;23.232;2023-08-31T06:42:01;11.00;;;2.13;;
33696;SDS011;20031;43.416;23.232;2023-08-31T06:44:27;12.50;;;2.47;;
33696;SDS011;20031;43.416;23.232;2023-08-31T06:46:54;12.00;;;2.17;;
33696;SDS011;20031;43.416;23.232;2023-08-31T06:49:20;7.22;;;1.88;;
33696;SDS011;20031;43.416;23.232;2023-08-31T06:51:49;19.73;;;2.60;;
33696;SDS011;20031;43.416;23.232;2023-08-31T06:54:14;7.95;;;2.22;;
33696;SDS011;20031;43.416;23.232;2023-08-31T06:56:40;9.60;;;2.13;;
33696;SDS011;20031;43.416;23.232;2023-08-31T06:59:06;6.68;;;1.80;;
33696;SDS011;20031;43.416;23.232;2023-08-31T07:01:31;9.20;;;2.03;;
33696;SDS011;20031;43.416;23.232;2023-08-31T07:03:58;6.53;;;1.73;;
33696;SDS011;20031;43.416;23.232;2023-08-31T07:06:23;9.23;;;1.70;;
33696;SDS011;20031;43.416;23.232;2023-08-31T07:08:49;11.93;;;2.58;;
33696;SDS011;20031;43.416;23.232;2023-08-31T07:11:16;6.53;;;1.80;;
33696;SDS011;20031;43.416;23.232;2023-08-31T07:13:42;12.75;;;2.00;;
33696;SDS011;20031;43.416;23.232;2023-08-31T07:16:08;8.93;;;2.20;;
33696;SDS011;20031;43.416;23.232;2023-08-31T07:18:33;10.65;;;2.30;;
33696;SDS011;20031;43.416;23.232;2023-08-31T07:21:00;8.73;;;1.70;;
33696;SDS011;20031;43.416;23.232;2023-08-31T07:23:26;5.45;;;1.90;;
33696;SDS011;20031;43.416;23.232;2023-08-31T07:25:51;21.02;;;2.25;;
33696;SDS011;20031;43.416;23.232;2023-08-31T07:28:17;12.13;;;1.98;;
33696;SDS011;20031;43.416;23.232;2023-08-31T07:30:42;9.85;;;2.10;;
33696;SDS011;20031;43.416;23.232;2023-08-31T07:33:08;27.73;;;2.40;;
33696;SDS011;20031;43.416;23.232;2023-08-31T07:35:34;8.98;;;2.17;;
33696;SDS011;20031;43.416;23.232;2023-08-31T07:37:59;8.40;;;2.08;;
33696;SDS011;20031;43.416;23.232;2023-08-31T07:40:25;7.07;;;1.90;;
33696;SDS011;20031;43.416;23.232;2023-08-31T07:42:50;12.05;;;2.10;;
33696;SDS011;20031;43.416;23.232;2023-08-31T07:45:16;7.82;;;2.17;;
33696;SDS011;20031;43.416;23.232;2023-08-31T07:47:42;9.40;;;2.20;;
33696;SDS011;20031;43.416;23.232;2023-08-31T07:50:08;5.75;;;2.20;;
33696;SDS011;20031;43.416;23.232;2023-08-31T07:52:34;11.57;;;1.92;;
33696;SDS011;20031;43.416;23.232;2023-08-31T07:54:59;7.65;;;1.95;;
33696;SDS011;20031;43.416;23.232;2023-08-31T07:57:25;9.93;;;2.10;;
33696;SDS011;20031;43.416;23.232;2023-08-31T07:59:51;11.05;;;1.95;;
33696;SDS011;20031;43.416;23.232;2023-08-31T08:02:16;8.93;;;1.90;;
33696;SDS011;20031;43.416;23.232;2023-08-31T08:04:42;11.65;;;2.08;;
33696;SDS011;20031;43.416;23.232;2023-08-31T08:07:07;7.85;;;2.00;;
33696;SDS011;20031;43.416;23.232;2023-08-31T08:09:33;9.50;;;2.22;;
33696;SDS011;20031;43.416;23.232;2023-08-31T08:12:00;9.30;;;2.17;;
33696;SDS011;20031;43.416;23.232;2023-08-31T08:14:25;11.73;;;1.92;;
33696;SDS011;20031;43.416;23.232;2023-08-31T08:16:51;16.52;;;2.22;;
33696;SDS011;20031;43.416;23.232;2023-08-31T08:19:22;20.52;;;3.60;;
33696;SDS011;20031;43.416;23.232;2023-08-31T08:21:49;21.02;;;5.55;;
33696;SDS011;20031;43.416;23.232;2023-08-31T08:24:17;18.83;;;4.82;;
33696;SDS011;20031;43.416;23.232;2023-08-31T08:26:43;18.20;;;3.03;;
33696;SDS011;20031;43.416;23.232;2023-08-31T08:29:08;18.98;;;3.10;;
33696;SDS011;20031;43.416;23.232;2023-08-31T08:31:34;17.10;;;3.13;;
33696;SDS011;20031;43.416;23.232;2023-08-31T08:34:00;11.23;;;3.00;;
33696;SDS011;20031;43.416;23.232;2023-08-31T08:36:26;11.48;;;3.28;;
33696;SDS011;20031;43.416;23.232;2023-08-31T08:38:52;18.55;;;3.60;;
33696;SDS011;20031;43.416;23.232;2023-08-31T08:41:19;11.40;;;2.70;;
33696;SDS011;20031;43.416;23.232;2023-08-31T08:43:55;7.93;;;1.92;;
33696;SDS011;20031;43.416;23.232;2023-08-31T08:46:26;20.95;;;3.08;;
33696;SDS011;20031;43.416;23.232;2023-08-31T08:48:52;15.75;;;2.50;;
33696;SDS011;20031;43.416;23.232;2023-08-31T08:51:20;6.70;;;1.70;;
33696;SDS011;20031;43.416;23.232;2023-08-31T08:53:46;8.98;;;2.10;;
33696;SDS011;20031;43.416;23.232;2023-08-31T08:56:16;6.72;;;1.60;;
33696;SDS011;20031;43.416;23.232;2023-08-31T08:58:41;8.68;;;1.85;;
33696;SDS011;20031;43.416;23.232;2023-08-31T09:01:07;5.88;;;1.73;;
33696;SDS011;20031;43.416;23.232;2023-08-31T09:03:34;55.00;;;4.50;;
33696;SDS011;20031;43.416;23.232;2023-08-31T09:05:59;22.15;;;2.60;;
33696;SDS011;20031;43.416;23.232;2023-08-31T09:08:28;11.57;;;2.63;;
33696;SDS011;20031;43.416;23.232;2023-08-31T09:10:57;24.60;;;2.45;;
33696;SDS011;20031;43.416;23.232;2023-08-31T09:13:26;7.95;;;2.05;;
33696;SDS011;20031;43.416;23.232;2023-08-31T09:15:55;6.97;;;1.92;;
33696;SDS011;20031;43.416;23.232;2023-08-31T09:18:27;13.00;;;2.22;;
33696;SDS011;20031;43.416;23.232;2023-08-31T09:20:57;6.55;;;2.00;;
33696;SDS011;20031;43.416;23.232;2023-08-31T09:23:23;7.53;;;2.00;;
33696;SDS011;20031;43.416;23.232;2023-08-31T09:25:49;16.83;;;2.33;;
33696;SDS011;20031;43.416;23.232;2023-08-31T09:28:21;6.13;;;2.10;;
33696;SDS011;20031;43.416;23.232;2023-08-31T09:30:49;18.60;;;2.70;;
33696;SDS011;20031;43.416;23.232;2023-08-31T09:33:17;7.55;;;1.70;;
33696;SDS011;20031;43.416;23.232;2023-08-31T09:35:50;7.10;;;1.70;;
33696;SDS011;20031;43.416;23.232;2023-08-31T09:38:17;11.27;;;2.03;;
33696;SDS011;20031;43.416;23.232;2023-08-31T09:40:43;5.40;;;1.65;;
33696;SDS011;20031;43.416;23.232;2023-08-31T09:43:09;9.57;;;2.08;;
33696;SDS011;20031;43.416;23.232;2023-08-31T09:45:34;9.75;;;2.03;;
33696;SDS011;20031;43.416;23.232;2023-08-31T09:48:02;8.93;;;1.70;;
33696;SDS011;20031;43.416;23.232;2023-08-31T09:50:29;10.93;;;2.00;;
33696;SDS011;20031;43.416;23.232;2023-08-31T09:53:04;6.75;;;1.88;;
33696;SDS011;20031;43.416;23.232;2023-08-31T09:55:33;7.55;;;2.13;;
33696;SDS011;20031;43.416;23.232;2023-08-31T09:58:03;11.48;;;2.22;;
33696;SDS011;20031;43.416;23.232;2023-08-31T10:00:31;6.03;;;1.80;;
33696;SDS011;20031;43.416;23.232;2023-08-31T10:03:00;3.53;;;1.45;;
33696;SDS011;20031;43.416;23.232;2023-08-31T10:05:28;8.45;;;1.67;;
33696;SDS011;20031;43.416;23.232;2023-08-31T10:07:54;5.82;;;1.80;;
33696;SDS011;20031;43.416;23.232;2023-08-31T10:10:20;8.18;;;1.88;;
33696;SDS011;20031;43.416;23.232;2023-08-31T10:12:50;6.30;;;1.60;;
33696;SDS011;20031;43.416;23.232;2023-08-31T10:15:17;15.23;;;2.08;;
33696;SDS011;20031;43.416;23.232;2023-08-31T10:17:43;11.55;;;1.92;;
33696;SDS011;20031;43.416;23.232;2023-08-31T10:20:10;5.00;;;1.55;;
33696;SDS011;20031;43.416;23.232;2023-08-31T10:22:37;8.52;;;1.80;;
33696;SDS011;20031;43.416;23.232;2023-08-31T10:25:06;6.47;;;2.00;;
33696;SDS011;20031;43.416;23.232;2023-08-31T10:27:39;13.32;;;2.08;;
33696;SDS011;20031;43.416;23.232;2023-08-31T10:30:27;6.93;;;2.10;;
33696;SDS011;20031;43.416;23.232;2023-08-31T10:38:23;14.20;;;2.53;;
33696;SDS011;20031;43.416;23.232;2023-08-31T10:46:15;10.68;;;1.77;;
33696;SDS011;20031;43.416;23.232;2023-08-31T10:51:35;7.90;;;1.70;;
33696;SDS011;20031;43.416;23.232;2023-08-31T10:59:46;5.55;;;1.70;;
33696;SDS011;20031;43.416;23.232;2023-08-31T11:05:06;7.75;;;1.50;;
33696;SDS011;20031;43.416;23.232;2023-08-31T11:07:32;4.68;;;1.65;;
33696;SDS011;20031;43.416;23.232;2023-08-31T11:10:07;16.55;;;3.60;;
33696;SDS011;20031;43.416;23.232;2023-08-31T11:12:35;6.03;;;2.30;;
33696;SDS011;20031;43.416;23.232;2023-08-31T11:15:01;4.70;;;2.03;;
33696;SDS011;20031;43.416;23.232;2023-08-31T11:17:28;4.07;;;1.63;;
33696;SDS011;20031;43.416;23.232;2023-08-31T11:19:54;6.15;;;2.17;;
33696;SDS011;20031;43.416;23.232;2023-08-31T11:22:21;4.70;;;1.75;;
33696;SDS011;20031;43.416;23.232;2023-08-31T11:24:46;7.65;;;2.00;;
33696;SDS011;20031;43.416;23.232;2023-08-31T11:27:12;9.95;;;1.88;;
33696;SDS011;20031;43.416;23.232;2023-08-31T11:29:37;11.05;;;2.50;;
33696;SDS011;20031;43.416;23.232;2023-08-31T11:32:08;8.70;;;1.80;;
33696;SDS011;20031;43.416;23.232;2023-08-31T11:34:33;7.75;;;1.70;;
33696;SDS011;20031;43.416;23.232;2023-08-31T11:36:59;8.95;;;1.50;;
33696;SDS011;20031;43.416;23.232;2023-08-31T11:39:25;3.22;;;1.50;;
33696;SDS011;20031;43.416;23.232;2023-08-31T11:41:50;7.35;;;1.90;;
33696;SDS011;20031;43.416;23.232;2023-08-31T11:44:16;7.95;;;1.80;;
33696;SDS011;20031;43.416;23.232;2023-08-31T11:46:43;4.80;;;1.75;;
33696;SDS011;20031;43.416;23.232;2023-08-31T11:49:11;6.57;;;1.60;;
33696;SDS011;20031;43.416;23.232;2023-08-31T11:51:36;10.85;;;2.00;;
33696;SDS011;20031;43.416;23.232;2023-08-31T11:54:04;11.63;;;2.33;;
33696;SDS011;20031;43.416;23.232;2023-08-31T11:56:43;8.38;;;2.20;;
33696;SDS011;20031;43.416;23.232;2023-08-31T11:59:10;7.20;;;1.65;;
33696;SDS011;20031;43.416;23.232;2023-08-31T12:01:46;4.78;;;1.50;;
33696;SDS011;20031;43.416;23.232;2023-08-31T12:04:17;8.40;;;1.75;;
33696;SDS011;20031;43.416;23.232;2023-08-31T12:06:46;4.68;;;1.70;;
33696;SDS011;20031;43.416;23.232;2023-08-31T12:09:13;8.95;;;2.00;;
33696;SDS011;20031;43.416;23.232;2023-08-31T12:11:39;19.83;;;4.28;;
33696;SDS011;20031;43.416;23.232;2023-08-31T12:14:17;11.43;;;2.40;;
33696;SDS011;20031;43.416;23.232;2023-08-31T12:16:44;11.05;;;2.10;;
33696;SDS011;20031;43.416;23.232;2023-08-31T12:19:09;9.77;;;1.88;;
33696;SDS011;20031;43.416;23.232;2023-08-31T12:21:35;11.30;;;2.85;;
33696;SDS011;20031;43.416;23.232;2023-08-31T12:24:01;5.53;;;1.98;;
33696;SDS011;20031;43.416;23.232;2023-08-31T12:26:28;11.43;;;2.40;;
33696;SDS011;20031;43.416;23.232;2023-08-31T12:28:54;10.93;;;2.08;;
33696;SDS011;20031;43.416;23.232;2023-08-31T12:31:19;5.10;;;1.98;;
33696;SDS011;20031;43.416;23.232;2023-08-31T12:33:45;20.17;;;2.10;;
33696;SDS011;20031;43.416;23.232;2023-08-31T12:36:10;16.70;;;3.33;;
33696;SDS011;20031;43.416;23.232;2023-08-31T12:38:36;13.82;;;3.78;;
33696;SDS011;20031;43.416;23.232;2023-08-31T12:41:01;15.98;;;5.22;;
33696;SDS011;20031;43.416;23.232;2023-08-31T12:43:28;20.92;;;4.70;;
33696;SDS011;20031;43.416;23.232;2023-08-31T12:45:54;8.32;;;2.65;;
33696;SDS011;20031;43.416;23.232;2023-08-31T12:48:20;6.22;;;2.10;;
33696;SDS011;20031;43.416;23.232;2023-08-31T12:50:45;6.72;;;2.20;;
33696;SDS011;20031;43.416;23.232;2023-08-31T12:53:13;7.40;;;1.90;;
33696;SDS011;20031;43.416;23.232;2023-08-31T12:55:40;8.65;;;2.00;;
33696;SDS011;20031;43.416;23.232;2023-08-31T12:58:05;5.75;;;2.10;;
33696;SDS011;20031;43.416;23.232;2023-08-31T13:00:31;5.15;;;2.13;;
33696;SDS011;20031;43.416;23.232;2023-08-31T13:02:56;4.18;;;1.73;;
33696;SDS011;20031;43.416;23.232;2023-08-31T13:05:22;5.65;;;2.08;;
33696;SDS011;20031;43.416;23.232;2023-08-31T13:07:47;7.68;;;2.20;;
33696;SDS011;20031;43.416;23.232;2023-08-31T13:10:13;6.15;;;2.00;;
33696;SDS011;20031;43.416;23.232;2023-08-31T13:12:38;4.47;;;1.80;;
33696;SDS011;20031;43.416;23.232;2023-08-31T13:15:04;7.82;;;2.08;;
33696;SDS011;20031;43.416;23.232;2023-08-31T13:17:30;5.32;;;1.92;;
33696;SDS011;20031;43.416;23.232;2023-08-31T13:19:56;5.78;;;2.05;;
33696;SDS011;20031;43.416;23.232;2023-08-31T13:22:22;6.95;;;1.95;;
33696;SDS011;20031;43.416;23.232;2023-08-31T13:24:48;5.75;;;2.00;;
33696;SDS011;20031;43.416;23.232;2023-08-31T13:27:15;20.83;;;2.78;;
33696;SDS011;20031;43.416;23.232;2023-08-31T13:29:41;5.78;;;2.00;;
33696;SDS011;20031;43.416;23.232;2023-08-31T13:32:07;5.68;;;2.25;;
33696;SDS011;20031;43.416;23.232;2023-08-31T13:34:33;5.80;;;2.03;;
33696;SDS011;20031;43.416;23.232;2023-08-31T13:36:58;4.45;;;1.83;;
33696;SDS011;20031;43.416;23.232;2023-08-31T13:39:25;5.88;;;1.90;;
33696;SDS011;20031;43.416;23.232;2023-08-31T13:41:51;85.55;;;6.20;;
33696;SDS011;20031;43.416;23.232;2023-08-31T13:44:18;12.95;;;2.47;;
33696;SDS011;20031;43.416;23.232;2023-08-31T13:46:45;12.05;;;2.08;;
33696;SDS011;20031;43.416;23.232;2023-08-31T13:49:10;9.43;;;2.20;;
33696;SDS011;20031;43.416;23.232;2023-08-31T13:51:36;9.68;;;2.35;;
33696;SDS011;20031;43.416;23.232;2023-08-31T13:54:02;7.18;;;2.38;;
33696;SDS011;20031;43.416;23.232;2023-08-31T13:56:32;4.30;;;2.00;;
33696;SDS011;20031;43.416;23.232;2023-08-31T13:58:57;4.72;;;2.00;;
33696;SDS011;20031;43.416;23.232;2023-08-31T14:01:23;8.70;;;1.90;;
33696;SDS011;20031;43.416;23.232;2023-08-31T14:03:49;8.25;;;2.50;;
33696;SDS011;20031;43.416;23.232;2023-08-31T14:06:15;6.85;;;2.30;;
33696;SDS011;20031;43.416;23.232;2023-08-31T14:08:41;5.88;;;2.17;;
33696;SDS011;20031;43.416;23.232;2023-08-31T14:11:06;5.45;;;2.25;;
33696;SDS011;20031;43.416;23.232;2023-08-31T14:13:32;9.93;;;2.30;;
33696;SDS011;20031;43.416;23.232;2023-08-31T14:15:58;13.02;;;2.15;;
33696;SDS011;20031;43.416;23.232;2023-08-31T14:18:26;9.45;;;2.30;;
33696;SDS011;20031;43.416;23.232;2023-08-31T14:20:54;5.30;;;1.95;;
33696;SDS011;20031;43.416;23.232;2023-08-31T14:23:20;4.07;;;1.60;;
33696;SDS011;20031;43.416;23.232;2023-08-31T14:25:45;11.63;;;2.80;;
33696;SDS011;20031;43.416;23.232;2023-08-31T14:28:11;11.60;;;2.38;;
33696;SDS011;20031;43.416;23.232;2023-08-31T14:30:36;8.27;;;2.53;;
33696;SDS011;20031;43.416;23.232;2023-08-31T14:33:02;5.97;;;2.33;;
33696;SDS011;20031;43.416;23.232;2023-08-31T14:35:28;5.85;;;2.55;;
33696;SDS011;20031;43.416;23.232;2023-08-31T14:37:53;7.30;;;2.58;;
33696;SDS011;20031;43.416;23.232;2023-08-31T14:40:19;7.85;;;2.50;;
33696;SDS011;20031;43.416;23.232;2023-08-31T14:42:44;5.95;;;2.35;;
33696;SDS011;20031;43.416;23.232;2023-08-31T14:45:10;9.55;;;2.10;;
33696;SDS011;20031;43.416;23.232;2023-08-31T14:47:35;7.97;;;1.88;;
33696;SDS011;20031;43.416;23.232;2023-08-31T14:50:01;5.80;;;2.30;;
33696;SDS011;20031;43.416;23.232;2023-08-31T14:52:26;4.30;;;1.67;;
33696;SDS011;20031;43.416;23.232;2023-08-31T14:54:52;2.70;;;1.60;;
33696;SDS011;20031;43.416;23.232;2023-08-31T14:57:17;2.63;;;1.60;;
33696;SDS011;20031;43.416;23.232;2023-08-31T14:59:43;5.90;;;2.13;;